Time;durP1;ratioP1;P1;durP2;ratioP2;P2;SDS_P1;SDS_P2;PMS_P1;PMS_P2;Temp;Humidity;BMP_temperature;BMP_pressure;BME280_temperature;BME280_humidity;BME280_pressure;Samples;Min_cycle;Max_cycle;Signal;HPM_P1;HPM_P2
2022/10/07 00:02:20;;;;;;;11.10;3.20;;;11.90;99.90;;;;;;5038975;28;25125;-70
2022/10/07 00:04:46;;;;;;;11.93;3.65;;;11.90;99.90;;;;;;5040455;28;25138;-71
2022/10/07 00:07:13;;;;;;;13.18;3.15;;;12.00;99.90;;;;;;5034278;28;25079;-70
2022/10/07 00:09:39;;;;;;;9.48;3.42;;;12.00;99.90;;;;;;5038343;28;25096;-72
2022/10/07 00:12:05;;;;;;;11.00;2.92;;;12.00;99.90;;;;;;5037204;28;25091;-70
2022/10/07 00:14:31;;;;;;;18.88;3.63;;;12.00;99.90;;;;;;5042110;28;25059;-70
2022/10/07 00:16:56;;;;;;;12.63;2.90;;;12.00;99.90;;;;;;5036443;28;25049;-71
2022/10/07 00:19:22;;;;;;;16.27;4.22;;;12.10;99.90;;;;;;5042989;28;25113;-70
2022/10/07 00:21:47;;;;;;;9.05;2.53;;;12.10;99.90;;;;;;5036445;28;25148;-72
2022/10/07 00:24:14;;;;;;;16.38;3.00;;;12.00;99.90;;;;;;5038438;28;25127;-70
2022/10/07 00:26:40;;;;;;;14.93;3.42;;;12.00;99.90;;;;;;5041771;28;25052;-71
2022/10/07 00:29:06;;;;;;;14.70;3.60;;;12.10;99.90;;;;;;5037979;28;25066;-70
2022/10/07 00:31:34;;;;;;;13.27;3.40;;;12.10;99.90;;;;;;5041134;28;25125;-69
2022/10/07 00:34:01;;;;;;;9.57;2.92;;;12.10;99.90;;;;;;5017695;28;25142;-71
2022/10/07 00:36:30;;;;;;;10.40;3.00;;;12.00;99.90;;;;;;5040233;28;25110;-71
2022/10/07 00:38:58;;;;;;;11.32;3.15;;;12.00;99.90;;;;;;5037474;28;25144;-71
2022/10/07 00:41:34;;;;;;;16.15;3.92;;;12.00;99.90;;;;;;5046426;28;25098;-70
2022/10/07 00:44:20;;;;;;;18.77;3.78;;;11.90;99.90;;;;;;5033603;28;25079;-70
2022/10/07 00:46:46;;;;;;;12.07;3.10;;;12.00;99.90;;;;;;5034102;28;25072;-71
2022/10/07 00:49:13;;;;;;;17.73;4.28;;;11.90;99.90;;;;;;5039035;28;25051;-70
2022/10/07 00:51:40;;;;;;;11.32;3.40;;;11.80;99.90;;;;;;5040443;28;25054;-68
2022/10/07 00:54:12;;;;;;;10.73;3.42;;;11.80;99.90;;;;;;5048590;28;25142;-69
2022/10/07 00:56:38;;;;;;;12.00;2.97;;;11.80;99.90;;;;;;5039763;28;25072;-71
2022/10/07 00:59:04;;;;;;;17.08;3.58;;;11.80;99.90;;;;;;5045325;28;25139;-71
2022/10/07 01:01:30;;;;;;;9.93;3.33;;;11.90;99.90;;;;;;5038423;28;25153;-71
2022/10/07 01:03:55;;;;;;;11.48;3.38;;;11.90;99.90;;;;;;5048578;28;25073;-73
2022/10/07 01:06:22;;;;;;;14.63;4.30;;;11.80;99.90;;;;;;5039042;28;25091;-71
2022/10/07 01:08:49;;;;;;;11.45;3.50;;;11.80;99.90;;;;;;5032548;28;25072;-72
2022/10/07 01:11:58;;;;;;;14.60;3.70;;;11.90;99.90;;;;;;5024801;28;25073;-73
2022/10/07 01:14:55;;;;;;;12.20;3.05;;;11.90;99.90;;;;;;5040891;28;25075;-71
2022/10/07 01:17:48;;;;;;;15.20;3.33;;;11.90;99.90;;;;;;5034365;28;25070;-69
2022/10/07 01:20:22;;;;;;;19.17;3.90;;;11.80;99.90;;;;;;5034933;28;25150;-71
2022/10/07 01:23:13;;;;;;;13.88;3.95;;;11.80;99.90;;;;;;5040872;28;25113;-70
2022/10/07 01:25:45;;;;;;;16.83;3.58;;;11.80;99.90;;;;;;5038577;28;25050;-71
2022/10/07 01:28:46;;;;;;;16.42;4.15;;;11.70;99.90;;;;;;5037217;28;25081;-70
2022/10/07 01:31:16;;;;;;;9.88;4.00;;;11.70;99.90;;;;;;5042680;28;25058;-70
2022/10/07 01:33:43;;;;;;;14.25;3.88;;;11.80;99.90;;;;;;5047766;28;25156;-72
2022/10/07 01:36:14;;;;;;;17.73;4.03;;;11.80;99.90;;;;;;5025801;28;25155;-71
2022/10/07 01:38:48;;;;;;;15.88;3.78;;;11.70;99.90;;;;;;5037294;28;25087;-73
2022/10/07 01:41:17;;;;;;;10.20;3.60;;;11.80;99.90;;;;;;5048817;28;25060;-72
2022/10/07 01:43:44;;;;;;;12.52;4.10;;;11.70;99.90;;;;;;5041938;28;25069;-71
2022/10/07 01:46:19;;;;;;;12.75;3.75;;;11.70;99.90;;;;;;5050975;28;25044;-70
2022/10/07 01:48:46;;;;;;;12.27;3.83;;;11.80;99.90;;;;;;5047888;28;25065;-71
2022/10/07 01:51:13;;;;;;;14.45;4.90;;;11.90;99.90;;;;;;5045641;28;25088;-71
2022/10/07 01:54:01;;;;;;;20.08;3.58;;;11.90;99.90;;;;;;5039025;28;25064;-71
2022/10/07 01:56:57;;;;;;;14.07;4.63;;;11.90;99.90;;;;;;5030275;28;25076;-71
2022/10/07 01:59:49;;;;;;;18.80;5.20;;;11.70;99.90;;;;;;5034256;28;25075;-71
2022/10/07 02:02:20;;;;;;;21.43;4.70;;;11.70;99.90;;;;;;5037217;28;25058;-70
2022/10/07 02:05:10;;;;;;;16.35;4.40;;;11.70;99.90;;;;;;5037553;28;25073;-71
2022/10/07 02:07:43;;;;;;;19.10;4.18;;;11.70;99.90;;;;;;5029933;28;25082;-70
2022/10/07 02:10:16;;;;;;;18.75;5.10;;;11.80;99.90;;;;;;5050162;28;25145;-72
2022/10/07 02:12:56;;;;;;;21.65;4.93;;;11.90;99.90;;;;;;5043675;28;25094;-71
2022/10/07 02:15:33;;;;;;;18.73;4.70;;;12.00;99.90;;;;;;5041368;28;25057;-70
2022/10/07 02:18:04;;;;;;;18.08;3.72;;;12.00;99.90;;;;;;5038258;28;25075;-71
2022/10/07 02:20:33;;;;;;;17.20;4.63;;;12.00;99.90;;;;;;5037112;28;25070;-71
2022/10/07 02:23:02;;;;;;;18.50;4.57;;;12.10;99.90;;;;;;5045506;28;25079;-72
2022/10/07 02:25:36;;;;;;;17.52;3.45;;;12.10;99.90;;;;;;5038376;28;25096;-70
2022/10/07 02:28:05;;;;;;;13.30;3.88;;;12.20;99.90;;;;;;5042655;28;25071;-69
2022/10/07 02:30:33;;;;;;;13.35;3.67;;;12.10;99.90;;;;;;5035268;28;25052;-71
2022/10/07 02:33:02;;;;;;;17.20;3.47;;;12.00;99.90;;;;;;5033608;28;25069;-70
2022/10/07 02:35:28;;;;;;;21.05;3.78;;;12.00;99.90;;;;;;5040778;28;25091;-71
2022/10/07 02:37:58;;;;;;;12.77;3.60;;;12.10;99.90;;;;;;5037146;28;25143;-71
2022/10/07 02:40:31;;;;;;;18.50;3.58;;;12.10;99.90;;;;;;5024291;28;25154;-71
2022/10/07 02:43:03;;;;;;;;;;;12.10;99.90;;;;;;5045785;28;25061;-70
2022/10/07 02:45:41;;;;;;;11.45;3.40;;;12.10;99.90;;;;;;5045716;28;24091;-70
2022/10/07 02:48:29;;;;;;;12.88;3.42;;;12.00;99.90;;;;;;5043292;28;25115;-72
2022/10/07 02:50:59;;;;;;;11.52;3.17;;;12.00;99.90;;;;;;5042682;28;25057;-70
2022/10/07 02:53:27;;;;;;;9.50;3.35;;;12.00;99.90;;;;;;5038775;28;25068;-70
2022/10/07 02:55:55;;;;;;;15.05;3.80;;;12.00;99.90;;;;;;5033552;28;25078;-73
2022/10/07 02:58:24;;;;;;;13.82;4.45;;;12.00;99.90;;;;;;5027709;28;25067;-70
2022/10/07 03:00:54;;;;;;;14.32;3.45;;;11.90;99.90;;;;;;5036549;28;25065;-71
2022/10/07 03:03:20;;;;;;;14.80;2.95;;;12.00;99.90;;;;;;5036257;28;25056;-71
2022/10/07 03:05:48;;;;;;;14.73;3.40;;;12.00;99.90;;;;;;5044773;28;25054;-70
2022/10/07 03:08:13;;;;;;;15.05;4.18;;;12.00;99.90;;;;;;5034642;28;25170;-71
2022/10/07 03:10:39;;;;;;;17.15;3.95;;;12.00;99.90;;;;;;5042110;28;25102;-71
2022/10/07 03:13:05;;;;;;;20.55;3.95;;;12.00;99.90;;;;;;5038250;28;25142;-71
2022/10/07 03:15:31;;;;;;;19.02;3.70;;;12.00;99.90;;;;;;5030113;28;25130;-71
2022/10/07 03:17:58;;;;;;;16.35;2.97;;;11.90;99.90;;;;;;5041962;28;25055;-70
2022/10/07 03:20:24;;;;;;;11.82;2.80;;;11.90;99.90;;;;;;5040190;28;25055;-71
2022/10/07 03:22:49;;;;;;;10.88;3.50;;;12.00;99.90;;;;;;5030985;28;25063;-71
2022/10/07 03:25:15;;;;;;;22.67;4.90;;;11.80;99.90;;;;;;5038299;28;25087;-70
2022/10/07 03:27:41;;;;;;;13.90;3.05;;;11.90;99.90;;;;;;5036467;28;25182;-71
2022/10/07 03:30:08;;;;;;;10.25;3.35;;;11.90;99.90;;;;;;5028136;28;25092;-70
2022/10/07 03:32:34;;;;;;;13.43;3.30;;;11.80;99.90;;;;;;5033167;28;25079;-72
2022/10/07 03:34:59;;;;;;;15.60;2.72;;;11.90;99.90;;;;;;5030767;28;25100;-70
2022/10/07 03:37:25;;;;;;;9.18;4.13;;;11.90;99.90;;;;;;5031247;28;25066;-72
2022/10/07 03:39:52;;;;;;;18.92;3.20;;;11.90;99.90;;;;;;5027575;28;25062;-71
2022/10/07 03:42:18;;;;;;;13.73;3.35;;;11.80;99.90;;;;;;5031194;28;25096;-71
2022/10/07 03:44:45;;;;;;;19.48;3.88;;;11.80;99.90;;;;;;5031973;28;25086;-70
2022/10/07 03:47:10;;;;;;;22.48;3.78;;;11.80;99.90;;;;;;5033877;28;25075;-69
2022/10/07 03:49:36;;;;;;;14.00;3.65;;;11.80;99.90;;;;;;5028846;28;25062;-68
2022/10/07 03:52:02;;;;;;;20.90;3.38;;;11.80;99.90;;;;;;5036183;28;25066;-68
2022/10/07 03:54:28;;;;;;;21.00;4.68;;;11.80;99.90;;;;;;5040456;28;25065;-70
2022/10/07 03:56:54;;;;;;;13.63;4.30;;;11.80;99.90;;;;;;5037694;28;25147;-71
2022/10/07 03:59:19;;;;;;;16.33;3.83;;;11.80;99.90;;;;;;5038728;28;25072;-72
2022/10/07 04:01:45;;;;;;;16.15;3.97;;;11.70;99.90;;;;;;5044952;28;25080;-71
2022/10/07 04:04:10;;;;;;;21.83;3.67;;;11.70;99.90;;;;;;5037476;28;25085;-72
2022/10/07 04:06:37;;;;;;;14.27;3.92;;;11.60;99.90;;;;;;5043700;28;25132;-71
2022/10/07 04:09:04;;;;;;;12.73;3.45;;;11.70;99.90;;;;;;5052765;28;25075;-71
2022/10/07 04:11:29;;;;;;;8.95;3.20;;;11.70;99.90;;;;;;5059298;28;25093;-68
2022/10/07 04:13:55;;;;;;;11.85;2.88;;;11.70;99.90;;;;;;5031522;28;25105;-71
2022/10/07 04:16:21;;;;;;;16.13;4.13;;;11.60;99.90;;;;;;5039639;28;25060;-71
2022/10/07 04:18:47;;;;;;;18.88;4.45;;;11.60;99.90;;;;;;5042700;28;25072;-71
2022/10/07 04:21:13;;;;;;;12.90;3.55;;;11.60;99.90;;;;;;5033511;28;25052;-71
2022/10/07 04:23:40;;;;;;;15.80;4.20;;;11.70;99.90;;;;;;5040982;28;25100;-71
2022/10/07 04:26:08;;;;;;;12.43;3.35;;;11.70;99.90;;;;;;5043578;28;25062;-71
2022/10/07 04:28:34;;;;;;;16.75;3.60;;;11.70;99.90;;;;;;5042390;28;25083;-72
2022/10/07 04:31:03;;;;;;;10.50;4.32;;;11.70;99.90;;;;;;5035240;28;25088;-71
2022/10/07 04:33:28;;;;;;;14.65;4.70;;;11.60;99.90;;;;;;5039141;28;25063;-71
2022/10/07 04:35:54;;;;;;;14.10;3.72;;;11.60;99.90;;;;;;5042263;28;25073;-71
2022/10/07 04:38:20;;;;;;;14.10;4.03;;;11.60;99.90;;;;;;5036591;28;25059;-70
2022/10/07 04:40:48;;;;;;;10.77;4.05;;;11.50;99.90;;;;;;5045926;28;25162;-71
2022/10/07 04:43:22;;;;;;;20.35;4.60;;;11.50;99.90;;;;;;5041303;28;25057;-69
2022/10/07 04:45:50;;;;;;;16.55;3.65;;;11.60;99.90;;;;;;5047924;28;25056;-71
2022/10/07 04:48:17;;;;;;;8.35;3.33;;;11.60;99.90;;;;;;5037043;28;25085;-71
2022/10/07 04:50:43;;;;;;;17.70;3.67;;;11.60;99.90;;;;;;5044086;28;25059;-70
2022/10/07 04:53:11;;;;;;;13.13;3.67;;;11.60;99.90;;;;;;5044378;28;25068;-70
2022/10/07 04:55:38;;;;;;;16.73;3.75;;;11.60;99.90;;;;;;5044325;28;24925;-68
2022/10/07 04:58:04;;;;;;;13.50;3.22;;;11.60;99.90;;;;;;5021874;28;25115;-72
2022/10/07 05:00:30;;;;;;;16.85;3.58;;;11.50;99.90;;;;;;5039241;28;25140;-72
2022/10/07 05:02:55;;;;;;;18.40;4.07;;;11.60;99.90;;;;;;5028232;28;25061;-71
2022/10/07 05:05:21;;;;;;;11.70;3.03;;;11.50;99.90;;;;;;5047677;28;25158;-70
2022/10/07 05:07:50;;;;;;;16.33;5.03;;;11.50;99.90;;;;;;5044969;28;25177;-71
2022/10/07 05:10:16;;;;;;;9.98;3.58;;;11.60;99.90;;;;;;5042857;28;25053;-69
2022/10/07 05:12:41;;;;;;;10.35;3.45;;;11.60;99.90;;;;;;5031649;28;25058;-71
2022/10/07 05:15:07;;;;;;;17.80;3.75;;;11.60;99.90;;;;;;5035638;28;25074;-70
2022/10/07 05:17:33;;;;;;;15.75;5.78;;;11.60;99.90;;;;;;5034706;28;25096;-70
2022/10/07 05:19:58;;;;;;;16.45;4.75;;;11.60;99.90;;;;;;5042933;28;25130;-70
2022/10/07 05:22:24;;;;;;;17.33;3.58;;;11.60;99.90;;;;;;5035484;28;25049;-72
2022/10/07 05:24:50;;;;;;;15.77;4.03;;;11.60;99.90;;;;;;5043414;28;25062;-71
2022/10/07 05:27:15;;;;;;;13.98;3.42;;;11.60;99.90;;;;;;5040438;28;25168;-71
2022/10/07 05:29:41;;;;;;;22.02;3.63;;;11.60;99.90;;;;;;5038933;28;25056;-71
2022/10/07 05:32:06;;;;;;;17.65;3.13;;;11.60;99.90;;;;;;5046747;28;25072;-71
2022/10/07 05:34:32;;;;;;;21.27;4.38;;;11.60;99.90;;;;;;5039570;28;25128;-71
2022/10/07 05:36:58;;;;;;;16.17;3.72;;;11.60;99.90;;;;;;5042342;28;25083;-70
2022/10/07 05:39:23;;;;;;;18.48;3.17;;;11.60;99.90;;;;;;5034616;28;25066;-70
2022/10/07 05:41:49;;;;;;;19.58;4.38;;;11.60;99.90;;;;;;5020490;28;25104;-71
2022/10/07 05:44:15;;;;;;;23.15;4.13;;;11.60;99.90;;;;;;5046791;28;25051;-71
2022/10/07 05:46:41;;;;;;;12.75;3.85;;;11.60;99.90;;;;;;5038022;28;25102;-70
2022/10/07 05:49:06;;;;;;;15.48;3.25;;;11.60;99.90;;;;;;5045095;28;25143;-71
2022/10/07 05:51:32;;;;;;;9.68;3.25;;;11.50;99.90;;;;;;5036278;28;25070;-71
2022/10/07 05:53:58;;;;;;;8.98;3.20;;;11.50;99.90;;;;;;5011463;28;25069;-71
2022/10/07 05:56:23;;;;;;;15.00;3.65;;;11.50;99.90;;;;;;5034344;28;25064;-71
2022/10/07 05:58:50;;;;;;;16.73;3.90;;;11.60;99.90;;;;;;5043739;28;25161;-70
2022/10/07 06:01:18;;;;;;;11.88;3.10;;;11.60;99.90;;;;;;5016406;28;25066;-71
2022/10/07 06:03:49;;;;;;;18.48;3.53;;;11.70;99.90;;;;;;5019876;28;25101;-71
2022/10/07 06:06:14;;;;;;;14.13;4.15;;;11.70;99.90;;;;;;5027153;28;25047;-72
2022/10/07 06:08:40;;;;;;;8.07;2.80;;;11.80;99.90;;;;;;5045829;28;25069;-72
2022/10/07 06:13:52;;;;;;;11.68;3.63;;;11.90;99.90;;;;;;5039981;28;25081;-70
2022/10/07 06:16:18;;;;;;;20.10;4.18;;;11.80;99.90;;;;;;5040224;28;25056;-71
2022/10/07 06:18:44;;;;;;;11.77;3.42;;;11.80;99.90;;;;;;5036849;28;25144;-72
2022/10/07 06:21:11;;;;;;;10.43;3.17;;;11.80;99.90;;;;;;5031653;28;25162;-70
2022/10/07 06:23:37;;;;;;;10.48;3.47;;;11.80;99.90;;;;;;5023549;28;25065;-71
2022/10/07 06:26:05;;;;;;;14.18;4.10;;;11.90;99.90;;;;;;5032906;28;25078;-70
2022/10/07 06:28:39;;;;;;;20.15;4.57;;;11.80;99.90;;;;;;5034182;28;25091;-72
2022/10/07 06:31:07;;;;;;;19.15;4.32;;;11.90;99.90;;;;;;5035501;28;25076;-70
2022/10/07 06:33:33;;;;;;;6.75;2.60;;;11.90;99.90;;;;;;5042317;28;25171;-71
2022/10/07 06:36:06;;;;;;;15.63;3.35;;;12.00;99.90;;;;;;5038323;28;25071;-71
2022/10/07 06:38:32;;;;;;;18.38;3.28;;;12.10;99.90;;;;;;5034079;28;25091;-70
2022/10/07 06:41:03;;;;;;;13.93;3.20;;;12.10;99.90;;;;;;5042888;28;25091;-70
2022/10/07 06:43:30;;;;;;;12.15;3.95;;;12.10;99.90;;;;;;5040413;28;25080;-71
2022/10/07 06:46:03;;;;;;;19.17;4.60;;;12.10;99.90;;;;;;5033469;28;25086;-71
2022/10/07 06:48:29;;;;;;;;;;;12.00;99.90;;;;;;5027780;28;25073;-69
2022/10/07 06:50:57;;;;;;;17.15;3.63;;;12.00;99.90;;;;;;5030159;28;24066;-71
2022/10/07 06:53:24;;;;;;;15.05;4.25;;;12.00;99.90;;;;;;5034015;28;25131;-71
2022/10/07 06:55:50;;;;;;;15.70;3.03;;;12.10;99.90;;;;;;5032246;28;25121;-72
2022/10/07 06:58:17;;;;;;;11.68;4.00;;;12.10;99.90;;;;;;5036248;28;25046;-72
2022/10/07 07:00:48;;;;;;;16.45;4.03;;;12.20;99.90;;;;;;5034363;28;25054;-72
2022/10/07 07:03:13;;;;;;;11.73;3.38;;;12.30;99.90;;;;;;5032571;28;25059;-72
2022/10/07 07:05:39;;;;;;;15.18;3.85;;;12.30;99.90;;;;;;5035267;28;25134;-71
2022/10/07 07:08:05;;;;;;;15.50;3.30;;;12.20;99.90;;;;;;5029135;28;25109;-71
2022/10/07 07:10:35;;;;;;;11.07;2.65;;;12.30;99.90;;;;;;5041922;28;25063;-72
2022/10/07 07:13:01;;;;;;;16.60;3.67;;;12.40;99.90;;;;;;5034907;28;25056;-71
2022/10/07 07:15:26;;;;;;;11.32;3.05;;;12.40;99.90;;;;;;5032737;28;25067;-71
2022/10/07 07:17:52;;;;;;;27.35;3.78;;;12.50;99.90;;;;;;5036937;28;25163;-72
2022/10/07 07:20:17;;;;;;;12.05;3.67;;;12.50;99.90;;;;;;5038877;28;25089;-72
2022/10/07 07:22:43;;;;;;;6.05;2.95;;;12.60;99.90;;;;;;5039508;28;25118;-72
2022/10/07 07:25:09;;;;;;;16.58;3.97;;;12.60;99.90;;;;;;5039352;28;25077;-71
2022/10/07 07:27:35;;;;;;;12.77;3.38;;;12.70;99.90;;;;;;5044225;28;25055;-72
2022/10/07 07:30:01;;;;;;;16.17;3.08;;;12.60;99.90;;;;;;5030811;28;25073;-70
2022/10/07 07:32:29;;;;;;;19.50;3.65;;;12.70;99.90;;;;;;5037531;28;25131;-72
2022/10/07 07:34:55;;;;;;;16.05;3.65;;;12.60;99.90;;;;;;5033889;28;25175;-71
2022/10/07 07:37:21;;;;;;;9.20;2.97;;;12.60;99.90;;;;;;5034104;28;25061;-71
2022/10/07 07:39:47;;;;;;;11.90;2.72;;;12.70;99.90;;;;;;5034733;28;25131;-70
2022/10/07 07:42:13;;;;;;;9.88;3.10;;;12.70;99.90;;;;;;5032172;28;25126;-72
2022/10/07 07:44:39;;;;;;;11.90;3.22;;;12.70;99.90;;;;;;5031340;28;25065;-73
2022/10/07 07:47:05;;;;;;;14.57;3.15;;;12.70;99.90;;;;;;5038932;28;25091;-71
2022/10/07 07:49:32;;;;;;;14.95;2.85;;;12.70;99.90;;;;;;5031929;28;25101;-72
2022/10/07 07:51:59;;;;;;;10.43;3.22;;;12.80;99.90;;;;;;5022107;28;25072;-72
2022/10/07 07:54:26;;;;;;;5.85;2.83;;;13.00;99.90;;;;;;5033559;28;25061;-71
2022/10/07 07:56:53;;;;;;;21.50;3.10;;;13.10;99.90;;;;;;5038724;28;25085;-70
2022/10/07 07:59:19;;;;;;;15.38;2.88;;;13.20;99.90;;;;;;5045283;28;25065;-71
2022/10/07 08:01:45;;;;;;;10.43;2.35;;;13.20;99.90;;;;;;5045189;28;25053;-71
2022/10/07 08:04:12;;;;;;;13.90;3.92;;;13.30;99.90;;;;;;5044930;28;25065;-70
2022/10/07 08:06:39;;;;;;;13.10;2.70;;;13.30;99.90;;;;;;5047099;28;25077;-71
2022/10/07 08:09:04;;;;;;;17.00;3.35;;;13.30;99.90;;;;;;5040693;28;25075;-73
2022/10/07 08:11:31;;;;;;;13.93;2.70;;;13.40;99.90;;;;;;5048302;28;25133;-71
2022/10/07 08:13:57;;;;;;;10.82;2.35;;;13.40;99.90;;;;;;5037784;28;25056;-70
2022/10/07 08:16:27;;;;;;;13.20;2.50;;;13.30;99.90;;;;;;5038880;28;25070;-71
2022/10/07 08:18:54;;;;;;;10.80;2.63;;;13.40;99.90;;;;;;5040985;28;25059;-70
2022/10/07 08:21:22;;;;;;;11.35;3.00;;;13.40;99.90;;;;;;5048927;28;25067;-70
2022/10/07 08:23:51;;;;;;;20.75;3.30;;;13.40;99.90;;;;;;5045161;28;25048;-70
2022/10/07 08:26:17;;;;;;;12.10;3.05;;;13.40;99.90;;;;;;5040720;28;25094;-70
2022/10/07 08:28:42;;;;;;;15.82;2.92;;;13.50;99.90;;;;;;5040673;28;25090;-70
2022/10/07 08:31:11;;;;;;;12.27;4.07;;;13.60;99.90;;;;;;5034252;28;25061;-71
2022/10/07 08:33:38;;;;;;;9.38;2.28;;;13.60;99.90;;;;;;5045865;28;25056;-69
2022/10/07 08:36:05;;;;;;;14.77;2.88;;;13.60;99.90;;;;;;5036044;28;25062;-71
2022/10/07 08:38:32;;;;;;;16.35;3.45;;;13.70;99.90;;;;;;5038726;28;25081;-72
2022/10/07 08:41:14;;;;;;;18.05;2.97;;;13.70;99.90;;;;;;5019519;28;25089;-70
2022/10/07 08:43:44;;;;;;;13.32;2.72;;;13.80;99.90;;;;;;5042808;28;25078;-70
2022/10/07 08:46:15;;;;;;;15.35;3.65;;;13.80;99.90;;;;;;5043477;28;25110;-70
2022/10/07 08:48:43;;;;;;;8.37;2.73;;;13.80;99.90;;;;;;5038528;28;25062;-72
2022/10/07 08:51:18;;;;;;;8.55;2.50;;;13.80;99.90;;;;;;5035294;28;25072;-71
2022/10/07 08:53:47;;;;;;;9.93;2.80;;;14.00;99.90;;;;;;5039414;28;25173;-69
2022/10/07 08:56:16;;;;;;;14.50;3.78;;;14.00;99.90;;;;;;5037504;28;25120;-69
2022/10/07 08:58:56;;;;;;;14.10;2.92;;;14.00;99.90;;;;;;5040959;28;25106;-70
2022/10/07 09:01:47;;;;;;;12.30;2.30;;;14.10;99.90;;;;;;5034725;28;25065;-71
2022/10/07 09:04:47;;;;;;;11.60;2.70;;;14.20;99.90;;;;;;5018039;28;25139;-71
2022/10/07 09:07:16;;;;;;;13.73;3.40;;;14.30;99.90;;;;;;5034395;28;25073;-70
2022/10/07 09:10:22;;;;;;;16.45;3.08;;;14.30;99.90;;;;;;5021471;28;25155;-71
2022/10/07 09:12:59;;;;;;;13.57;2.72;;;14.40;99.90;;;;;;5036499;28;25146;-70
2022/10/07 09:15:26;;;;;;;16.00;3.03;;;14.60;99.90;;;;;;5029770;28;25060;-70
2022/10/07 09:17:59;;;;;;;11.38;2.50;;;14.80;99.90;;;;;;5037229;28;25070;-70
2022/10/07 09:20:38;;;;;;;13.77;3.17;;;14.70;99.90;;;;;;5034865;28;25057;-70
2022/10/07 09:23:05;;;;;;;13.65;2.55;;;14.80;99.90;;;;;;5037386;28;25061;-72
2022/10/07 09:25:32;;;;;;;9.63;2.58;;;15.00;99.90;;;;;;5037011;28;24991;-71
2022/10/07 09:27:58;;;;;;;14.55;3.03;;;15.00;99.90;;;;;;5039682;28;25052;-70
2022/10/07 09:30:26;;;;;;;11.52;3.28;;;15.10;99.90;;;;;;5018304;28;25068;-69
2022/10/07 09:32:54;;;;;;;11.27;2.67;;;15.20;99.90;;;;;;5042441;28;25084;-70
2022/10/07 09:35:25;;;;;;;19.45;3.03;;;15.20;99.90;;;;;;5038441;28;25063;-70
2022/10/07 09:37:53;;;;;;;19.48;2.85;;;15.30;99.90;;;;;;5036708;28;25128;-71
2022/10/07 09:40:32;;;;;;;8.85;2.80;;;15.30;99.90;;;;;;5042460;28;25063;-72
2022/10/07 09:42:58;;;;;;;18.13;2.38;;;15.40;99.90;;;;;;5036503;28;25097;-70
2022/10/07 09:45:30;;;;;;;10.07;2.97;;;15.50;99.90;;;;;;5032528;28;25138;-70
2022/10/07 09:48:05;;;;;;;13.98;2.78;;;15.70;99.90;;;;;;5036060;28;25056;-70
2022/10/07 09:50:41;;;;;;;14.02;3.33;;;15.80;99.90;;;;;;5035966;28;25065;-70
2022/10/07 09:53:26;;;;;;;15.10;2.38;;;15.80;99.90;;;;;;5029127;28;25012;-72
2022/10/07 09:55:54;;;;;;;18.80;3.85;;;16.00;99.90;;;;;;5031600;28;25102;-70
2022/10/07 09:58:19;;;;;;;13.10;2.95;;;16.00;99.90;;;;;;5034846;28;25052;-71
2022/10/07 10:00:47;;;;;;;8.82;2.83;;;16.10;99.90;;;;;;5033225;28;25068;-71
2022/10/07 10:03:13;;;;;;;12.82;2.20;;;16.00;99.90;;;;;;5034746;28;25155;-71
2022/10/07 10:05:50;;;;;;;9.75;2.45;;;16.10;99.90;;;;;;5030001;28;25121;-69
2022/10/07 10:08:16;;;;;;;9.45;2.72;;;16.10;99.90;;;;;;5033622;28;25167;-71
2022/10/07 10:10:54;;;;;;;10.85;2.83;;;16.10;99.90;;;;;;5046520;28;25092;-71
2022/10/07 10:13:30;;;;;;;8.75;2.85;;;16.00;99.90;;;;;;5032777;28;25057;-71
2022/10/07 10:15:56;;;;;;;13.50;3.00;;;16.10;99.90;;;;;;5035100;28;25133;-69
2022/10/07 10:18:27;;;;;;;14.63;2.45;;;16.10;99.90;;;;;;5032160;28;25105;-70
2022/10/07 10:20:53;;;;;;;8.18;2.05;;;16.10;99.90;;;;;;5036906;28;25052;-70
2022/10/07 10:23:37;;;;;;;8.68;1.88;;;16.30;99.90;;;;;;5027531;28;25133;-71
2022/10/07 10:29:01;;;;;;;9.27;2.22;;;16.30;99.90;;;;;;5032926;28;25128;-71
2022/10/07 10:31:44;;;;;;;7.40;2.03;;;16.50;99.90;;;;;;5032082;28;25105;-72
2022/10/07 10:34:53;;;;;;;17.40;2.30;;;16.50;99.90;;;;;;5035919;28;25057;-70
2022/10/07 10:37:26;;;;;;;4.38;1.55;;;16.50;99.90;;;;;;5037697;28;25050;-73
2022/10/07 10:40:13;;;;;;;11.18;1.92;;;16.60;99.90;;;;;;5043749;28;25065;-71
2022/10/07 10:43:10;;;;;;;5.10;1.73;;;16.60;99.90;;;;;;5044517;28;25068;-71
2022/10/07 10:46:14;;;;;;;7.60;1.80;;;16.70;99.90;;;;;;5019879;28;25070;-68
2022/10/07 10:48:46;;;;;;;8.73;2.00;;;16.80;99.90;;;;;;5030563;28;25111;-71
2022/10/07 10:51:24;;;;;;;9.20;1.70;;;16.80;99.90;;;;;;5032421;28;25066;-69
2022/10/07 10:54:01;;;;;;;10.38;1.92;;;16.90;99.90;;;;;;5034201;28;25081;-71
2022/10/07 10:56:54;;;;;;;5.18;1.45;;;16.90;99.90;;;;;;5039050;28;25101;-72
2022/10/07 10:59:48;;;;;;;7.88;1.75;;;17.00;99.90;;;;;;5027223;28;25058;-72
2022/10/07 11:02:35;;;;;;;9.70;1.95;;;17.20;99.90;;;;;;5040689;28;25139;-71
2022/10/07 11:05:27;;;;;;;7.78;1.92;;;17.60;99.90;;;;;;5035914;28;25058;-71
2022/10/07 11:08:01;;;;;;;9.43;1.90;;;17.70;99.90;;;;;;5031473;28;25081;-72
2022/10/07 11:10:34;;;;;;;7.60;1.77;;;17.80;99.90;;;;;;5032789;28;25302;-72
2022/10/07 11:13:14;;;;;;;7.28;2.40;;;17.90;99.90;;;;;;5029074;28;25056;-71
2022/10/07 11:15:55;;;;;;;10.85;2.22;;;18.10;99.90;;;;;;5044977;28;25062;-70
2022/10/07 11:18:33;;;;;;;11.93;1.88;;;18.20;99.90;;;;;;5033687;28;25058;-71
2022/10/07 11:21:00;;;;;;;8.02;1.70;;;18.20;99.90;;;;;;5034058;28;25110;-72
2022/10/07 11:23:49;;;;;;;7.22;2.03;;;18.30;99.90;;;;;;5033636;28;25080;-72
2022/10/07 11:26:46;;;;;;;7.13;1.73;;;18.50;99.90;;;;;;5043528;28;25052;-71
2022/10/07 11:29:27;;;;;;;18.77;2.25;;;18.80;99.90;;;;;;5033014;28;25142;-71
2022/10/07 11:32:26;;;;;;;9.80;2.42;;;18.90;99.90;;;;;;5041737;28;25065;-72
2022/10/07 11:34:55;;;;;;;8.45;1.95;;;19.10;99.90;;;;;;5036291;28;25167;-73
2022/10/07 11:37:30;;;;;;;11.43;2.42;;;19.20;99.90;;;;;;5029280;28;25142;-71
2022/10/07 11:39:56;;;;;;;10.52;1.73;;;19.10;99.90;;;;;;5035069;28;25074;-72
2022/10/07 11:42:23;;;;;;;9.90;2.10;;;19.20;99.90;;;;;;5035154;28;25062;-72
2022/10/07 11:45:04;;;;;;;9.55;1.83;;;18.80;99.90;;;;;;5038624;28;25079;-69
2022/10/07 11:47:39;;;;;;;5.45;2.17;;;18.40;99.90;;;;;;5042334;28;25131;-69
2022/10/07 11:50:13;;;;;;;12.40;2.20;;;18.10;99.90;;;;;;5015010;28;25057;-73
2022/10/07 11:52:43;;;;;;;9.00;1.80;;;18.30;99.90;;;;;;5033020;28;25049;-73
2022/10/07 11:55:46;;;;;;;11.00;1.92;;;18.20;99.90;;;;;;5037039;28;25064;-72
2022/10/07 11:58:31;;;;;;;13.38;2.92;;;18.00;99.90;;;;;;4929160;28;25056;-72
2022/10/07 12:01:25;;;;;;;9.98;1.52;;;18.10;99.90;;;;;;5022196;28;25097;-71
2022/10/07 12:03:54;;;;;;;12.10;3.58;;;18.20;99.90;;;;;;5019749;28;25103;-72
2022/10/07 12:06:19;;;;;;;11.68;2.05;;;18.20;99.90;;;;;;5032164;28;25102;-71
2022/10/07 12:08:45;;;;;;;10.18;1.83;;;18.00;99.90;;;;;;5046227;28;25018;-70
2022/10/07 12:11:14;;;;;;;13.00;2.53;;;17.80;99.90;;;;;;5034964;28;25058;-74
2022/10/07 12:13:45;;;;;;;7.80;2.40;;;18.00;99.90;;;;;;5039078;28;25073;-71
2022/10/07 12:16:22;;;;;;;11.20;2.25;;;18.10;99.90;;;;;;5034798;28;25093;-72
2022/10/07 12:19:06;;;;;;;7.93;1.75;;;18.30;99.90;;;;;;5032665;28;25078;-70
2022/10/07 12:22:03;;;;;;;8.48;2.78;;;18.10;99.90;;;;;;5046372;28;25139;-72
2022/10/07 12:24:36;;;;;;;7.70;2.60;;;18.10;99.90;;;;;;5052576;28;25066;-72
2022/10/07 12:27:16;;;;;;;6.97;2.00;;;18.10;99.90;;;;;;5032201;28;25087;-69
2022/10/07 12:29:47;;;;;;;5.55;2.28;;;18.30;99.90;;;;;;5040042;28;25070;-70
2022/10/07 12:32:39;;;;;;;7.55;1.90;;;18.50;99.90;;;;;;5032111;28;25143;-72
2022/10/07 12:35:35;;;;;;;10.63;2.20;;;18.60;99.90;;;;;;5040799;28;25105;-73
2022/10/07 12:38:22;;;;;;;10.20;2.90;;;18.50;99.90;;;;;;5039231;28;25063;-70
2022/10/07 12:41:17;;;;;;;9.20;1.85;;;18.50;99.90;;;;;;5038116;28;25111;-72
2022/10/07 12:43:54;;;;;;;15.35;2.47;;;18.50;99.90;;;;;;5038305;28;25083;-72
2022/10/07 12:46:24;;;;;;;9.90;2.78;;;18.60;99.90;;;;;;5046163;28;25046;-71
2022/10/07 12:49:20;;;;;;;10.25;2.05;;;18.40;99.90;;;;;;5041104;28;25066;-71
2022/10/07 12:51:46;;;;;;;8.25;2.05;;;18.10;99.90;;;;;;5041120;28;25060;-71
2022/10/07 12:54:34;;;;;;;8.45;1.90;;;18.30;99.90;;;;;;5043976;28;25074;-72
2022/10/07 12:57:01;;;;;;;8.85;1.80;;;19.00;99.90;;;;;;5044166;28;25058;-71
2022/10/07 12:59:48;;;;;;;14.52;2.10;;;19.30;99.90;;;;;;5036770;28;25091;-71
2022/10/07 13:02:20;;;;;;;8.05;1.63;;;19.50;99.90;;;;;;5031524;28;25156;-70
2022/10/07 13:05:06;;;;;;;5.80;1.67;;;20.00;99.90;;;;;;5035883;28;25061;-73
2022/10/07 13:08:11;;;;;;;7.65;2.45;;;20.50;99.90;;;;;;5042953;28;25068;-70
2022/10/07 13:11:04;;;;;;;15.27;2.50;;;20.10;99.90;;;;;;5042340;28;25077;-70